Time;durP1;ratioP1;P1;durP2;ratioP2;P2;SDS_P1;SDS_P2;PMS_P1;PMS_P2;Temp;Humidity;BMP_temperature;BMP_pressure;BME280_temperature;BME280_humidity;BME280_pressure;Samples;Min_cycle;Max_cycle;Signal;HPM_P1;HPM_P2
2022/11/08 00:02:21;;;;;;;15.23;3.83;;;;;;;12.01;100.00;100828.03;4993722;28;20082;-86
2022/11/08 00:04:46;;;;;;;8.90;3.07;;;;;;;11.99;100.00;100837.25;4995964;28;20520;-88
2022/11/08 00:15:24;;;;;;;11.75;3.10;;;;;;;11.89;100.00;100838.78;5019598;28;20331;-87
2022/11/08 00:17:49;;;;;;;9.60;3.37;;;;;;;11.91;100.00;100840.22;5020601;28;20397;-84
2022/11/08 00:20:14;;;;;;;11.43;3.00;;;;;;;11.83;100.00;100830.47;5019902;28;20494;-83
2022/11/08 00:22:40;;;;;;;10.77;3.30;;;;;;;11.79;100.00;100831.94;5020563;28;20393;-89
2022/11/08 00:25:05;;;;;;;13.30;3.40;;;;;;;11.79;100.00;100831.09;5020088;28;20037;-87
2022/11/08 00:27:31;;;;;;;10.53;3.73;;;;;;;11.79;100.00;100828.38;5034905;28;20033;-88
2022/11/08 00:29:56;;;;;;;12.73;3.70;;;;;;;11.71;100.00;100820.50;5019551;28;20305;-85
2022/11/08 00:32:24;;;;;;;11.03;3.53;;;;;;;11.72;100.00;100833.03;5020764;28;20115;-86
2022/11/08 00:34:50;;;;;;;11.73;3.70;;;;;;;11.64;100.00;100824.13;5020086;28;20520;-86
2022/11/08 00:37:17;;;;;;;12.47;3.90;;;;;;;11.66;100.00;100835.56;5020848;28;20049;-86
2022/11/08 00:39:43;;;;;;;16.00;4.10;;;;;;;11.62;100.00;100831.63;5020056;28;20033;-87
2022/11/08 00:42:09;;;;;;;10.73;3.57;;;;;;;11.48;100.00;100820.03;5019002;28;20461;-86
2022/11/08 00:44:34;;;;;;;15.00;3.50;;;;;;;11.47;100.00;100822.97;5020791;28;20030;-87
2022/11/08 00:47:00;;;;;;;12.43;3.80;;;;;;;11.43;100.00;100817.16;5019004;28;20102;-87
2022/11/08 00:49:25;;;;;;;12.43;3.80;;;;;;;11.37;100.00;100817.19;5018330;28;20037;-86
2022/11/08 00:51:50;;;;;;;12.23;3.40;;;;;;;11.31;100.00;100817.03;5001010;28;20129;-86
2022/11/08 00:54:18;;;;;;;12.27;3.93;;;;;;;11.27;100.00;100812.25;5019044;28;20111;-88
2022/11/08 00:56:45;;;;;;;12.23;3.50;;;;;;;11.22;100.00;100817.47;5018817;28;20033;-87
2022/11/08 00:59:15;;;;;;;9.90;3.90;;;;;;;11.20;100.00;100816.88;5019945;28;20087;-88
2022/11/08 01:01:41;;;;;;;10.30;3.80;;;;;;;11.15;100.00;100809.38;5019129;28;20041;-87
2022/11/08 01:04:07;;;;;;;14.73;3.97;;;;;;;11.14;100.00;100811.25;5034759;28;20072;-86
2022/11/08 01:06:33;;;;;;;12.10;3.70;;;;;;;11.06;100.00;100800.66;5020478;28;20042;-87
2022/11/08 01:08:59;;;;;;;10.93;3.70;;;;;;;11.06;100.00;100810.69;5019571;28;20448;-86
2022/11/08 01:11:25;;;;;;;8.90;3.23;;;;;;;11.04;100.00;100808.19;5001920;28;20041;-88
2022/11/08 01:13:54;;;;;;;11.37;3.90;;;;;;;11.01;100.00;100807.78;5020048;28;20036;-85
2022/11/08 01:16:22;;;;;;;13.83;4.50;;;;;;;11.01;100.00;100808.63;5019282;28;20049;-87
2022/11/08 01:18:49;;;;;;;9.63;3.87;;;;;;;10.96;100.00;100808.41;5018937;28;20049;-86
2022/11/08 01:21:15;;;;;;;12.77;4.00;;;;;;;10.96;100.00;100811.13;5018583;28;20188;-87
2022/11/08 01:23:41;;;;;;;9.63;3.93;;;;;;;10.91;100.00;100800.13;5019041;28;20037;-86
2022/11/08 01:26:10;;;;;;;11.57;3.70;;;;;;;10.96;100.00;100801.13;5018831;28;20025;-87
2022/11/08 01:28:36;;;;;;;12.10;4.30;;;;;;;10.90;100.00;100812.84;5000591;28;20037;-88
2022/11/08 01:31:05;;;;;;;14.83;4.80;;;;;;;10.92;100.00;100802.63;5018481;28;20041;-87
2022/11/08 01:33:31;;;;;;;14.00;4.20;;;;;;;10.90;100.00;100793.84;5019214;28;20517;-86
2022/11/08 01:35:57;;;;;;;12.67;4.30;;;;;;;10.90;100.00;100788.44;5018316;28;20041;-87
2022/11/08 01:38:22;;;;;;;11.57;4.13;;;;;;;10.93;100.00;100796.16;5019927;28;20079;-87
2022/11/08 01:40:47;;;;;;;13.23;4.20;;;;;;;10.94;100.00;100786.94;5018357;28;20042;-87
2022/11/08 01:43:28;;;;;;;11.30;3.60;;;;;;;10.92;100.00;100783.63;5018546;28;20073;-87
2022/11/08 01:46:09;;;;;;;11.47;4.10;;;;;;;10.93;100.00;100774.47;5033519;28;20041;-86
2022/11/08 01:48:38;;;;;;;9.77;3.30;;;;;;;10.91;100.00;100781.97;5018576;28;20068;-87
2022/11/08 01:51:07;;;;;;;14.33;4.40;;;;;;;10.98;100.00;100771.09;5019054;28;20083;-89
2022/11/08 01:53:32;;;;;;;10.70;3.70;;;;;;;10.94;100.00;100757.13;5019271;28;20090;-86
2022/11/08 01:55:58;;;;;;;11.83;3.77;;;;;;;10.98;100.00;100769.22;5018139;28;21443;-87
2022/11/08 01:58:28;;;;;;;12.13;3.83;;;;;;;11.00;100.00;100763.56;5018823;28;21388;-89
2022/11/08 02:00:53;;;;;;;7.70;3.20;;;;;;;10.96;100.00;100736.06;5006085;28;20064;-86
2022/11/08 02:03:20;;;;;;;11.50;3.63;;;;;;;10.94;100.00;100748.19;5016615;28;20120;-87
2022/11/08 02:05:46;;;;;;;10.97;4.03;;;;;;;10.95;100.00;100734.41;5018177;28;20032;-87
2022/11/08 02:08:24;;;;;;;11.27;4.20;;;;;;;10.96;100.00;100741.50;5019913;28;20072;-87
2022/11/08 02:10:51;;;;;;;9.93;3.13;;;;;;;10.88;100.00;100728.19;5022964;28;20565;-86
2022/11/08 02:13:23;;;;;;;10.57;3.30;;;;;;;10.96;100.00;100722.53;5022491;28;20033;-86
2022/11/08 02:15:49;;;;;;;11.70;3.50;;;;;;;11.03;100.00;100724.34;5022431;28;20034;-86
2022/11/08 02:18:16;;;;;;;12.40;3.40;;;;;;;10.95;100.00;100720.03;5022645;28;20045;-86
2022/11/08 02:21:07;;;;;;;11.30;3.60;;;;;;;10.94;100.00;100729.22;5022814;28;20437;-86
2022/11/08 02:23:46;;;;;;;8.67;2.90;;;;;;;10.91;100.00;100722.34;5023224;28;21942;-87
2022/11/08 02:26:12;;;;;;;8.33;3.23;;;;;;;10.88;100.00;100716.50;5021961;28;20040;-88
2022/11/08 02:28:47;;;;;;;12.30;3.40;;;;;;;10.91;100.00;100710.69;5022586;28;20385;-87
2022/11/08 02:31:15;;;;;;;10.60;3.30;;;;;;;10.89;100.00;100710.91;5021815;28;20046;-85
2022/11/08 02:33:41;;;;;;;13.63;3.40;;;;;;;10.89;100.00;100705.47;5022481;28;20057;-88
2022/11/08 02:36:10;;;;;;;10.83;3.90;;;;;;;10.88;100.00;100709.22;5021742;28;20136;-86
2022/11/08 02:38:39;;;;;;;8.63;3.33;;;;;;;10.89;100.00;100705.47;5021927;28;20048;-86
2022/11/08 02:41:05;;;;;;;11.27;3.83;;;;;;;10.92;100.00;100696.06;5021961;28;20704;-86
2022/11/08 02:43:30;;;;;;;10.37;3.27;;;;;;;10.87;100.00;100698.59;5021957;28;20037;-87
2022/11/08 02:45:57;;;;;;;9.80;3.53;;;;;;;10.82;100.00;100691.09;5003072;28;20045;-86
2022/11/08 02:48:22;;;;;;;10.27;3.57;;;;;;;10.84;100.00;100697.16;5037716;28;20041;-86
2022/11/08 02:50:47;;;;;;;14.50;4.00;;;;;;;10.77;100.00;100691.78;5022395;28;20039;-88
2022/11/08 02:53:13;;;;;;;11.57;4.03;;;;;;;10.76;100.00;100687.38;5021399;28;20476;-86
2022/11/08 02:55:38;;;;;;;11.27;3.50;;;;;;;10.72;100.00;100677.22;5020985;28;20440;-86
2022/11/08 02:58:04;;;;;;;10.07;3.27;;;;;;;10.72;100.00;100677.22;5037031;28;20040;-86
2022/11/08 03:00:29;;;;;;;9.70;3.60;;;;;;;10.66;100.00;100670.75;5021497;28;20393;-86
2022/11/08 03:02:56;;;;;;;13.40;4.47;;;;;;;10.61;100.00;100671.41;5022357;28;20034;-87
2022/11/08 03:05:23;;;;;;;10.17;3.50;;;;;;;10.58;100.00;100666.44;5020517;28;20035;-87
2022/11/08 03:07:49;;;;;;;11.77;3.60;;;;;;;10.61;100.00;100663.28;5021496;28;20037;-86
2022/11/08 03:10:15;;;;;;;10.13;3.07;;;;;;;10.59;100.00;100662.69;5021457;28;20501;-87
2022/11/08 03:12:41;;;;;;;11.97;3.73;;;;;;;10.65;100.00;100663.69;5003360;28;20068;-88
2022/11/08 03:15:09;;;;;;;9.97;3.03;;;;;;;10.60;100.00;100647.25;5021333;28;20042;-86
2022/11/08 03:17:34;;;;;;;7.90;3.27;;;;;;;10.54;100.00;100637.28;5021587;28;20039;-87
2022/11/08 03:20:00;;;;;;;8.70;3.03;;;;;;;10.57;100.00;100639.56;5002787;28;20037;-87
2022/11/08 03:22:25;;;;;;;7.07;2.90;;;;;;;10.59;100.00;100638.31;5021079;28;20038;-86
2022/11/08 03:24:51;;;;;;;7.73;3.00;;;;;;;10.59;100.00;100630.19;5022303;28;20042;-86
2022/11/08 03:27:18;;;;;;;7.87;2.90;;;;;;;10.56;100.00;100630.59;5020130;28;21465;-87
2022/11/08 03:29:44;;;;;;;8.07;3.17;;;;;;;10.59;100.00;100627.47;4998090;28;20504;-86
2022/11/08 03:32:10;;;;;;;9.27;3.00;;;;;;;10.59;100.00;100622.06;5020468;28;20189;-87
2022/11/08 03:34:35;;;;;;;7.97;3.10;;;;;;;10.57;100.00;100623.31;5021452;28;20041;-86
2022/11/08 03:37:04;;;;;;;6.87;2.60;;;;;;;10.58;100.00;100619.53;5020725;28;20223;-87
2022/11/08 03:39:29;;;;;;;7.77;2.73;;;;;;;10.58;100.00;100614.97;5021657;28;20200;-85
2022/11/08 03:41:54;;;;;;;10.47;3.33;;;;;;;10.55;100.00;100615.41;5001163;28;20689;-86
2022/11/08 03:44:20;;;;;;;8.87;2.80;;;;;;;10.56;100.00;100605.38;5021485;28;20045;-88
2022/11/08 03:46:45;;;;;;;6.83;3.13;;;;;;;10.49;100.00;100591.88;5021587;28;20112;-86
2022/11/08 03:49:10;;;;;;;7.97;2.93;;;;;;;10.54;100.00;100592.06;5019672;28;20123;-87
2022/11/08 03:51:36;;;;;;;8.23;2.90;;;;;;;10.53;100.00;100587.69;5009290;28;20041;-87
2022/11/08 03:54:01;;;;;;;7.97;3.27;;;;;;;10.57;100.00;100574.56;5002467;28;20421;-84
2022/11/08 03:56:26;;;;;;;8.77;3.03;;;;;;;10.56;100.00;100576.41;5021053;28;20041;-86
2022/11/08 03:58:52;;;;;;;9.10;2.90;;;;;;;10.62;100.00;100574.69;5035999;28;20115;-85
2022/11/08 04:01:17;;;;;;;9.90;2.97;;;;;;;10.66;100.00;100564.28;5019893;28;20067;-88
2022/11/08 04:03:42;;;;;;;7.83;2.87;;;;;;;10.67;100.00;100557.81;5003854;28;20191;-86
2022/11/08 04:06:08;;;;;;;8.73;3.00;;;;;;;10.64;100.00;100553.66;5020586;28;20155;-86
2022/11/08 04:08:33;;;;;;;7.77;2.93;;;;;;;10.62;100.00;100556.59;5021003;28;20039;-86
2022/11/08 04:16:47;;;;;;;8.88;2.80;;;;;;;10.59;100.00;100540.78;4966453;28;20093;-86
2022/11/08 04:21:57;;;;;;;8.35;2.80;;;;;;;10.73;100.00;100532.53;5019378;28;20193;-87
2022/11/08 04:24:22;;;;;;;7.67;2.70;;;;;;;10.69;100.00;100534.88;5020328;28;20061;-83
2022/11/08 04:26:48;;;;;;;9.07;2.80;;;;;;;10.69;100.00;100525.88;5019617;28;20628;-87
2022/11/08 04:29:13;;;;;;;8.30;2.80;;;;;;;10.73;100.00;100530.66;5018493;28;20225;-85
2022/11/08 04:31:39;;;;;;;6.13;2.77;;;;;;;10.69;100.00;100534.00;5019950;28;20043;-85
2022/11/08 04:34:05;;;;;;;6.13;2.70;;;;;;;10.68;100.00;100527.78;4999759;28;20498;-87
2022/11/08 04:36:32;;;;;;;9.87;2.70;;;;;;;10.69;99.93;100517.75;5020252;28;20061;-87
2022/11/08 04:38:58;;;;;;;7.60;2.57;;;;;;;10.66;99.96;100512.78;5020074;28;20110;-87
2022/11/08 04:41:24;;;;;;;7.27;2.40;;;;;;;10.62;100.00;100510.53;5002358;28;20080;-86
2022/11/08 04:43:53;;;;;;;7.40;2.57;;;;;;;10.67;99.09;100500.91;5020168;28;20033;-85
2022/11/08 04:46:22;;;;;;;5.90;2.50;;;;;;;10.58;99.53;100512.03;5020176;28;20037;-86
2022/11/08 04:48:50;;;;;;;7.57;2.70;;;;;;;10.58;99.51;100505.75;5019553;28;20037;-85
2022/11/08 04:51:21;;;;;;;7.60;2.43;;;;;;;10.54;99.33;100496.41;5016710;28;20304;-86
2022/11/08 04:53:47;;;;;;;10.80;2.93;;;;;;;10.52;99.62;100503.94;5010929;28;20036;-86
2022/11/08 04:56:15;;;;;;;6.93;2.60;;;;;;;10.50;99.28;100504.16;5019116;28;20045;-86
2022/11/08 04:58:42;;;;;;;7.30;2.77;;;;;;;10.49;98.98;100491.66;5019314;28;20398;-86
2022/11/08 05:01:10;;;;;;;6.97;2.50;;;;;;;10.47;99.15;100485.63;5019767;28;20052;-85
2022/11/08 05:03:35;;;;;;;7.40;2.47;;;;;;;10.47;98.43;100475.63;5019861;28;20053;-86
2022/11/08 05:06:02;;;;;;;7.30;2.63;;;;;;;10.51;98.52;100469.75;5019506;28;20068;-85
2022/11/08 05:08:28;;;;;;;8.47;2.80;;;;;;;10.44;98.25;100478.78;5019789;28;20449;-88
2022/11/08 05:11:24;;;;;;;6.00;2.37;;;;;;;10.47;98.51;100466.66;5018919;28;20040;-86
2022/11/08 05:13:50;;;;;;;6.47;2.40;;;;;;;10.42;98.22;100471.94;5005539;28;20045;-85
2022/11/08 05:16:21;;;;;;;8.20;2.70;;;;;;;10.39;97.97;100467.78;5019746;28;20122;-86
2022/11/08 05:18:46;;;;;;;7.17;2.50;;;;;;;10.43;97.70;100465.44;5018621;28;20036;-87
2022/11/08 05:24:00;;;;;;;7.90;2.70;;;;;;;10.32;98.02;100453.41;5018612;28;20136;-88
2022/11/08 05:26:26;;;;;;;8.27;2.30;;;;;;;10.30;98.00;100452.81;4999606;28;20052;-89
2022/11/08 05:28:51;;;;;;;7.40;2.70;;;;;;;10.31;97.60;100463.41;5019159;28;20037;-86
2022/11/08 05:31:17;;;;;;;4.97;2.50;;;;;;;10.28;97.71;100461.16;5018801;28;20037;-87
2022/11/08 05:33:43;;;;;;;7.00;2.60;;;;;;;10.29;97.30;100460.13;5018752;28;20045;-87
2022/11/08 05:36:12;;;;;;;6.73;2.53;;;;;;;10.31;97.04;100460.72;5032548;28;20237;-86
2022/11/08 05:38:38;;;;;;;6.77;2.60;;;;;;;10.27;96.59;100450.56;5018999;28;20373;-87
2022/11/08 05:41:05;;;;;;;6.07;2.33;;;;;;;10.34;96.56;100450.50;5000742;28;20092;-87
2022/11/08 05:43:31;;;;;;;6.27;2.53;;;;;;;10.37;96.12;100439.25;5016591;28;20087;-89
2022/11/08 05:45:56;;;;;;;5.80;2.40;;;;;;;10.36;95.61;100443.00;5018167;28;20041;-87
2022/11/08 05:48:22;;;;;;;6.70;2.67;;;;;;;10.43;95.16;100441.91;5019327;28;20122;-86
2022/11/08 05:50:47;;;;;;;5.50;2.37;;;;;;;10.45;94.76;100442.50;5019032;28;20399;-86
2022/11/08 05:53:13;;;;;;;7.10;2.20;;;;;;;10.45;94.58;100439.81;5034172;28;20447;-87
2022/11/08 05:55:38;;;;;;;7.47;2.63;;;;;;;10.48;94.24;100454.78;5017901;28;20179;-85
2022/11/08 05:58:04;;;;;;;7.37;2.63;;;;;;;10.55;93.98;100442.03;5019302;28;20115;-86
2022/11/08 06:00:29;;;;;;;7.63;2.50;;;;;;;10.51;93.95;100445.38;5010894;28;21375;-88
2022/11/08 06:02:55;;;;;;;5.40;2.40;;;;;;;10.50;94.06;100444.56;5017896;28;20041;-87
2022/11/08 06:05:20;;;;;;;5.13;2.47;;;;;;;10.46;94.25;100433.34;5019086;28;20095;-86
2022/11/08 06:07:46;;;;;;;6.00;2.67;;;;;;;10.42;93.92;100431.31;4999811;28;20077;-86
2022/11/08 06:10:11;;;;;;;5.90;2.80;;;;;;;10.43;94.08;100441.06;5017559;28;21480;-87
2022/11/08 06:12:37;;;;;;;8.43;2.33;;;;;;;10.45;94.01;100436.28;5017743;28;21508;-88
2022/11/08 06:15:06;;;;;;;5.03;2.50;;;;;;;10.46;93.60;100427.09;4994197;28;20132;-86
2022/11/08 06:17:32;;;;;;;6.03;2.53;;;;;;;10.47;93.45;100429.59;5017520;28;20038;-88
2022/11/08 06:19:57;;;;;;;6.67;2.30;;;;;;;10.48;93.25;100430.41;5017527;28;20500;-85
2022/11/08 06:22:23;;;;;;;6.13;2.50;;;;;;;10.51;93.20;100429.13;5032682;28;20163;-86
2022/11/08 06:24:48;;;;;;;5.93;2.50;;;;;;;10.49;93.14;100429.38;5018211;28;20045;-90
2022/11/08 06:27:14;;;;;;;5.80;2.60;;;;;;;10.51;92.95;100437.25;5017468;28;20037;-87
2022/11/08 06:29:41;;;;;;;5.83;2.40;;;;;;;10.47;93.39;100439.56;5018790;28;20422;-86
2022/11/08 06:32:08;;;;;;;5.10;2.60;;;;;;;10.45;93.57;100438.97;5018235;28;20088;-85
2022/11/08 06:34:33;;;;;;;5.43;2.87;;;;;;;10.43;93.63;100449.19;5018496;28;20029;-87
2022/11/08 06:36:59;;;;;;;5.53;2.63;;;;;;;10.37;93.99;100440.06;5018549;28;20061;-88
2022/11/08 06:39:24;;;;;;;7.93;2.90;;;;;;;10.35;94.13;100436.78;5017747;28;20039;-85
2022/11/08 06:41:50;;;;;;;5.47;2.33;;;;;;;10.36;93.99;100440.31;5019052;28;20425;-87
2022/11/08 06:44:15;;;;;;;8.60;2.90;;;;;;;10.37;93.90;100444.69;5018077;28;20045;-86
2022/11/08 06:46:40;;;;;;;7.53;2.90;;;;;;;10.31;94.46;100447.19;5000357;28;20119;-85
2022/11/08 06:49:06;;;;;;;5.67;2.70;;;;;;;10.31;93.99;100435.53;4999802;28;20073;-87
2022/11/08 06:51:31;;;;;;;6.53;2.70;;;;;;;10.35;93.93;100436.78;5000471;28;20128;-87
2022/11/08 06:53:57;;;;;;;5.43;2.33;;;;;;;10.29;94.19;100427.63;5034126;28;20064;-86
2022/11/08 06:56:22;;;;;;;6.17;2.47;;;;;;;10.30;94.02;100429.25;5022312;28;20034;-85
2022/11/08 06:58:48;;;;;;;5.70;2.67;;;;;;;10.30;93.87;100434.69;5004162;28;20067;-86
2022/11/08 07:01:13;;;;;;;5.37;2.70;;;;;;;10.33;94.18;100438.00;5002468;28;20056;-88
2022/11/08 07:03:38;;;;;;;7.10;2.90;;;;;;;10.29;94.03;100427.63;5021554;28;20042;-85
2022/11/08 07:06:05;;;;;;;6.87;2.80;;;;;;;10.30;94.13;100434.69;5022012;28;20112;-85
2022/11/08 07:08:31;;;;;;;5.87;2.80;;;;;;;10.33;94.23;100428.00;5021697;28;20045;-86
2022/11/08 07:10:57;;;;;;;5.40;2.73;;;;;;;10.30;94.17;100440.09;5018778;28;20135;-87
2022/11/08 07:13:22;;;;;;;5.50;2.83;;;;;;;10.31;94.42;100449.88;5036515;28;21301;-86
2022/11/08 07:15:48;;;;;;;7.80;3.23;;;;;;;10.33;94.67;100438.00;5022010;28;20037;-84
2022/11/08 07:18:15;;;;;;;5.37;2.93;;;;;;;10.35;93.95;100452.16;5003930;28;20627;-87
2022/11/08 07:20:41;;;;;;;6.77;3.00;;;;;;;10.38;93.88;100449.06;5013591;28;20032;-85
2022/11/08 07:23:09;;;;;;;7.20;3.03;;;;;;;10.41;93.79;100445.88;5020643;28;20112;-85
2022/11/08 07:25:34;;;;;;;7.83;2.93;;;;;;;10.43;93.66;100447.34;5021312;28;20034;-87
2022/11/08 07:28:02;;;;;;;6.07;3.20;;;;;;;10.45;93.59;100436.28;5021776;28;20083;-85
2022/11/08 07:30:28;;;;;;;7.90;3.07;;;;;;;10.43;93.82;100441.91;5021866;28;20473;-85
2022/11/08 07:32:54;;;;;;;7.33;2.90;;;;;;;10.48;92.73;100441.25;5020611;28;20223;-85
2022/11/08 07:35:20;;;;;;;3.90;2.90;;;;;;;10.45;92.77;100442.50;5021105;28;20037;-85
2022/11/08 07:37:46;;;;;;;5.67;2.67;;;;;;;10.47;91.99;100439.56;5020199;28;20496;-85
2022/11/08 07:40:12;;;;;;;5.30;2.73;;;;;;;10.50;91.79;100439.16;5036542;28;21296;-89
2022/11/08 07:42:38;;;;;;;5.77;2.97;;;;;;;10.54;92.12;100436.81;5021396;28;21467;-87
2022/11/08 07:45:06;;;;;;;4.80;2.83;;;;;;;10.60;91.61;100444.88;5021249;28;20044;-86
2022/11/08 07:47:31;;;;;;;7.10;2.87;;;;;;;10.60;91.40;100428.63;5035226;28;20052;-87
2022/11/08 07:49:57;;;;;;;6.80;2.80;;;;;;;10.64;90.80;100435.25;5019608;28;20045;-86
2022/11/08 07:52:22;;;;;;;4.00;2.30;;;;;;;10.69;90.56;100436.47;5019616;28;20046;-84
2022/11/08 07:54:47;;;;;;;5.80;2.67;;;;;;;10.76;90.70;100431.84;5021056;28;20037;-86
2022/11/08 07:57:13;;;;;;;8.40;2.70;;;;;;;10.77;90.05;100441.59;5021470;28;20037;-86
2022/11/08 07:59:38;;;;;;;6.47;2.93;;;;;;;10.77;90.08;100430.75;5020810;28;20052;-87
2022/11/08 08:02:04;;;;;;;3.37;2.37;;;;;;;10.81;89.59;100432.81;5020890;28;20049;-87
2022/11/08 08:04:29;;;;;;;4.67;2.70;;;;;;;10.86;89.46;100426.72;5020286;28;20048;-87
2022/11/08 08:06:57;;;;;;;6.77;3.13;;;;;;;10.85;90.01;100430.47;5020518;28;20455;-85
2022/11/08 08:09:22;;;;;;;5.47;2.70;;;;;;;10.89;89.06;100430.88;5020840;28;20530;-87
2022/11/08 08:11:48;;;;;;;6.87;2.80;;;;;;;10.92;89.01;100420.41;5020585;28;20037;-88
2022/11/08 08:14:13;;;;;;;5.37;2.60;;;;;;;10.96;89.10;100416.19;5020040;28;20473;-83
2022/11/08 08:16:39;;;;;;;5.80;3.03;;;;;;;11.03;88.34;100424.25;5021088;28;20084;-85
2022/11/08 08:19:04;;;;;;;5.77;2.63;;;;;;;11.09;88.47;100425.25;5019862;28;20044;-86
2022/11/08 08:21:30;;;;;;;6.13;2.80;;;;;;;11.09;87.45;100420.63;5020258;28;20296;-85
2022/11/08 08:23:55;;;;;;;5.03;2.57;;;;;;;11.14;87.48;100428.09;5035484;28;20087;-85
2022/11/08 08:26:20;;;;;;;6.60;2.67;;;;;;;11.21;87.32;100437.00;5034818;28;20063;-85
2022/11/08 08:28:46;;;;;;;4.97;2.70;;;;;;;11.24;86.72;100422.16;5036062;28;20326;-85
2022/11/08 08:31:11;;;;;;;7.67;3.00;;;;;;;11.27;87.07;100438.81;5020650;28;20045;-86
2022/11/08 08:33:37;;;;;;;6.47;2.60;;;;;;;11.32;87.32;100446.25;5020440;28;20228;-86
2022/11/08 08:36:02;;;;;;;8.13;3.17;;;;;;;11.37;87.41;100437.44;5019448;28;20060;-85
2022/11/08 08:38:30;;;;;;;10.10;3.50;;;;;;;11.41;87.14;100446.75;5019863;28;20573;-86
2022/11/08 08:40:56;;;;;;;6.83;2.90;;;;;;;11.46;86.14;100453.19;5017073;28;20112;-86
2022/11/08 08:43:22;;;;;;;7.20;3.07;;;;;;;11.48;85.76;100450.25;5019540;28;20057;-87
2022/11/08 08:45:47;;;;;;;8.30;3.00;;;;;;;11.60;84.62;100459.28;5019171;28;20092;-87
2022/11/08 08:48:13;;;;;;;6.23;2.70;;;;;;;11.74;84.88;100464.53;5032927;28;20040;-86
2022/11/08 08:50:39;;;;;;;7.47;3.10;;;;;;;11.81;84.54;100446.25;5002990;28;20037;-87
2022/11/08 08:53:05;;;;;;;6.60;3.00;;;;;;;11.95;83.97;100445.06;5019966;28;20515;-87
2022/11/08 08:55:34;;;;;;;5.53;2.70;;;;;;;12.03;83.17;100452.03;5019746;28;20037;-87
2022/11/08 08:57:59;;;;;;;5.77;2.70;;;;;;;12.09;82.30;100442.97;5019986;28;20048;-87
2022/11/08 09:00:25;;;;;;;5.67;2.60;;;;;;;12.15;82.39;100423.03;5019847;28;20038;-88
2022/11/08 09:02:51;;;;;;;5.77;2.70;;;;;;;12.23;82.59;100430.00;5019268;28;20048;-88
2022/11/08 09:05:16;;;;;;;4.97;2.60;;;;;;;12.30;81.29;100429.91;5018989;28;20576;-86
2022/11/08 09:07:42;;;;;;;5.03;2.43;;;;;;;12.38;80.91;100420.59;5019595;28;20476;-84
2022/11/08 09:10:09;;;;;;;4.73;2.63;;;;;;;12.41;81.24;100426.38;5019980;28;20033;-85
2022/11/08 09:12:35;;;;;;;5.87;2.50;;;;;;;12.44;79.73;100419.66;5001354;28;21454;-87
2022/11/08 09:15:00;;;;;;;4.13;2.17;;;;;;;12.50;80.71;100405.13;5034269;28;20038;-87
2022/11/08 09:17:27;;;;;;;5.83;2.50;;;;;;;12.61;79.68;100412.47;5018063;28;20129;-86
2022/11/08 09:19:52;;;;;;;5.80;2.40;;;;;;;12.72;79.06;100413.53;5019856;28;20045;-86
2022/11/08 09:22:18;;;;;;;3.93;2.33;;;;;;;12.77;78.31;100413.66;5018659;28;20033;-88
2022/11/08 09:24:43;;;;;;;3.50;2.30;;;;;;;12.79;77.96;100418.84;5017427;28;20044;-86
2022/11/08 09:27:08;;;;;;;8.23;2.40;;;;;;;12.82;78.00;100416.50;5009356;28;20083;-84
2022/11/08 09:29:34;;;;;;;4.47;2.40;;;;;;;12.85;77.29;100415.16;5018505;28;20091;-83
2022/11/08 09:32:00;;;;;;;6.73;2.30;;;;;;;12.83;77.38;100414.59;5019318;28;20033;-85
2022/11/08 09:34:26;;;;;;;4.97;2.33;;;;;;;12.87;77.83;100406.78;5019568;28;20595;-86
2022/11/08 09:36:51;;;;;;;5.30;2.30;;;;;;;12.86;76.05;100408.66;5018587;28;20037;-86
2022/11/08 09:39:17;;;;;;;4.63;2.47;;;;;;;12.90;78.24;100420.72;5032183;28;20085;-85
2022/11/08 09:42:03;;;;;;;5.67;2.70;;;;;;;12.93;77.93;100420.25;5018184;28;20045;-86
2022/11/08 09:44:58;;;;;;;4.37;2.53;;;;;;;12.96;77.23;100417.06;5017490;28;20056;-84
2022/11/08 09:47:29;;;;;;;5.55;2.10;;;;;;;13.07;76.45;100429.00;5018651;28;20434;-84
2022/11/08 09:50:05;;;;;;;6.20;2.37;;;;;;;13.06;77.04;100421.06;5018281;28;20580;-85
2022/11/08 09:52:33;;;;;;;5.97;2.40;;;;;;;13.18;77.20;100424.59;5019214;28;20108;-84
2022/11/08 09:55:21;;;;;;;5.67;2.43;;;;;;;13.25;76.23;100425.28;5018180;28;20037;-84
2022/11/08 09:57:59;;;;;;;5.23;2.20;;;;;;;13.29;75.44;100429.19;5018144;28;20057;-87
2022/11/08 10:00:25;;;;;;;5.83;2.20;;;;;;;13.31;75.18;100420.78;5000894;28;20042;-83
2022/11/08 10:02:50;;;;;;;5.20;2.20;;;;;;;13.40;74.94;100432.16;5019293;28;20592;-84
2022/11/08 10:05:18;;;;;;;3.80;2.10;;;;;;;13.41;74.55;100434.63;5033628;28;20094;-85
2022/11/08 10:07:53;;;;;;;6.07;2.37;;;;;;;13.43;74.16;100407.16;5018912;28;20041;-88
2022/11/08 10:10:57;;;;;;;3.63;2.10;;;;;;;13.52;74.25;100438.38;5018710;28;20600;-85
2022/11/08 10:13:50;;;;;;;5.40;2.10;;;;;;;13.54;73.56;100433.50;5018204;28;20033;-88
2022/11/08 10:16:34;;;;;;;5.13;2.40;;;;;;;13.62;74.28;100435.84;5018803;28;20132;-86
2022/11/08 10:18:59;;;;;;;3.10;2.22;;;;;;;13.73;74.65;100445.03;5017174;28;20490;-85
2022/11/08 10:21:48;;;;;;;5.07;2.27;;;;;;;13.94;73.94;100437.25;5017937;28;20072;-84
2022/11/08 10:24:26;;;;;;;4.23;2.20;;;;;;;14.08;72.26;100446.78;5017992;28;20641;-84
2022/11/08 10:26:54;;;;;;;3.83;2.13;;;;;;;14.18;71.43;100446.13;5018382;28;20034;-84
2022/11/08 10:29:22;;;;;;;5.33;2.03;;;;;;;14.24;70.77;100458.78;5020708;28;20148;-83
2022/11/08 10:31:55;;;;;;;5.57;2.00;;;;;;;14.29;70.58;100449.88;5022534;28;20033;-85
2022/11/08 10:34:25;;;;;;;4.60;2.07;;;;;;;14.26;70.79;100451.19;5020936;28;20030;-84
2022/11/08 10:36:59;;;;;;;3.70;2.10;;;;;;;14.23;70.10;100459.03;5021688;28;20396;-83
2022/11/08 10:39:32;;;;;;;3.90;2.20;;;;;;;14.17;70.49;100458.09;5003415;28;20140;-86
2022/11/08 10:42:10;;;;;;;4.55;2.60;;;;;;;14.25;69.54;100455.00;5021527;28;20033;-84
2022/11/08 10:44:35;;;;;;;5.27;2.30;;;;;;;14.17;70.26;100449.94;5022655;28;21439;-83
2022/11/08 10:47:04;;;;;;;5.77;2.30;;;;;;;14.18;69.68;100446.97;5021457;28;20045;-85
2022/11/08 10:49:38;;;;;;;5.67;2.90;;;;;;;14.15;70.51;100454.81;5021117;28;20045;-83
2022/11/08 10:52:31;;;;;;;6.22;2.40;;;;;;;14.16;70.01;100445.56;5021864;28;21275;-87
2022/11/08 10:54:58;;;;;;;6.23;2.40;;;;;;;14.22;69.39;100452.75;5002977;28;20037;-83
2022/11/08 10:57:37;;;;;;;5.63;2.10;;;;;;;14.16;69.41;100443.66;5021419;28;20036;-83
2022/11/08 11:00:22;;;;;;;8.03;2.67;;;;;;;14.31;70.02;100454.00;5022495;28;20037;-84
2022/11/08 11:02:54;;;;;;;6.53;2.90;;;;;;;14.28;69.12;100431.84;5020920;28;20033;-86
2022/11/08 11:05:26;;;;;;;6.53;2.40;;;;;;;14.29;69.72;100444.41;5022104;28;20213;-82
2022/11/08 11:07:59;;;;;;;6.13;2.33;;;;;;;14.37;68.89;100435.03;5020583;28;20515;-85
2022/11/08 11:10:32;;;;;;;6.27;2.20;;;;;;;14.31;68.79;100425.94;5021653;28;20045;-84
2022/11/08 11:13:22;;;;;;;6.20;2.27;;;;;;;14.39;69.05;100433.69;5021756;28;20090;-82
2022/11/08 11:16:02;;;;;;;6.83;2.20;;;;;;;14.39;69.02;100433.69;5018000;28;20576;-84
2022/11/08 11:18:37;;;;;;;6.20;2.23;;;;;;;14.34;69.19;100404.44;5019200;28;20808;-84
2022/11/08 11:21:21;;;;;;;3.10;2.10;;;;;;;14.40;69.82;100412.72;5021069;28;20084;-84
2022/11/08 11:23:50;;;;;;;8.13;2.87;;;;;;;14.38;69.92;100401.25;5021606;28;21704;-85
2022/11/08 11:26:30;;;;;;;7.07;2.33;;;;;;;14.34;69.47;100409.09;5021815;28;20227;-84
2022/11/08 11:29:05;;;;;;;5.60;2.10;;;;;;;14.34;69.61;100420.81;5019660;28;20037;-85
2022/11/08 11:31:39;;;;;;;4.30;2.20;;;;;;;14.34;69.33;100404.44;5021325;28;20047;-86
2022/11/08 11:34:16;;;;;;;5.13;2.30;;;;;;;14.45;70.27;100401.91;5020276;28;21474;-82
2022/11/08 11:36:51;;;;;;;4.00;2.20;;;;;;;14.45;69.14;100380.09;5020247;28;20443;-86
2022/11/08 11:40:06;;;;;;;4.67;2.47;;;;;;;14.50;69.47;100391.09;5035608;28;20492;-88
2022/11/08 11:42:40;;;;;;;5.10;2.10;;;;;;;14.57;69.75;100380.81;5005190;28;20444;-85
2022/11/08 11:45:18;;;;;;;4.37;2.13;;;;;;;14.59;68.11;100388.75;5021588;28;20041;-85